sensor_id;sensor_type;location;lat;lon;timestamp;P1;durP1;ratioP1;P2;durP2;ratioP2
11287;SDS011;5700;50.996;7.044;2023-08-01T00:00:38;63.03;;;23.45;;
11287;SDS011;5700;50.996;7.044;2023-08-01T00:03:40;64.65;;;27.08;;
11287;SDS011;5700;50.996;7.044;2023-08-01T00:06:42;72.28;;;29.77;;
11287;SDS011;5700;50.996;7.044;2023-08-01T00:09:43;70.22;;;29.58;;
11287;SDS011;5700;50.996;7.044;2023-08-01T00:12:45;55.90;;;25.00;;
11287;SDS011;5700;50.996;7.044;2023-08-01T00:15:48;60.90;;;26.17;;
11287;SDS011;5700;50.996;7.044;2023-08-01T00:18:50;54.45;;;24.15;;
11287;SDS011;5700;50.996;7.044;2023-08-01T00:21:51;46.78;;;21.42;;
11287;SDS011;5700;50.996;7.044;2023-08-01T00:24:53;58.05;;;24.90;;
11287;SDS011;5700;50.996;7.044;2023-08-01T00:27:55;52.83;;;22.75;;
11287;SDS011;5700;50.996;7.044;2023-08-01T00:31:06;46.70;;;20.35;;
11287;SDS011;5700;50.996;7.044;2023-08-01T00:34:09;39.50;;;18.10;;
11287;SDS011;5700;50.996;7.044;2023-08-01T00:37:12;31.65;;;14.98;;
11287;SDS011;5700;50.996;7.044;2023-08-01T00:40:14;32.30;;;13.63;;
11287;SDS011;5700;50.996;7.044;2023-08-01T00:43:17;36.45;;;15.27;;
11287;SDS011;5700;50.996;7.044;2023-08-01T00:46:21;23.75;;;11.10;;
11287;SDS011;5700;50.996;7.044;2023-08-01T00:49:22;27.25;;;11.60;;
11287;SDS011;5700;50.996;7.044;2023-08-01T00:52:24;22.40;;;10.13;;
11287;SDS011;5700;50.996;7.044;2023-08-01T00:55:26;17.80;;;6.68;;
11287;SDS011;5700;50.996;7.044;2023-08-01T00:58:29;11.38;;;5.07;;
11287;SDS011;5700;50.996;7.044;2023-08-01T01:01:32;8.93;;;4.03;;
11287;SDS011;5700;50.996;7.044;2023-08-01T01:04:34;6.15;;;2.78;;
11287;SDS011;5700;50.996;7.044;2023-08-01T01:07:35;5.75;;;2.15;;
11287;SDS011;5700;50.996;7.044;2023-08-01T01:10:38;4.82;;;2.15;;
11287;SDS011;5700;50.996;7.044;2023-08-01T01:13:39;7.10;;;1.70;;
11287;SDS011;5700;50.996;7.044;2023-08-01T01:16:43;6.28;;;1.65;;
11287;SDS011;5700;50.996;7.044;2023-08-01T01:19:45;2.25;;;1.25;;
11287;SDS011;5700;50.996;7.044;2023-08-01T01:22:48;1.92;;;1.00;;
11287;SDS011;5700;50.996;7.044;2023-08-01T01:25:50;3.55;;;1.13;;
11287;SDS011;5700;50.996;7.044;2023-08-01T01:28:52;2.30;;;1.10;;
11287;SDS011;5700;50.996;7.044;2023-08-01T01:31:54;1.60;;;0.82;;
11287;SDS011;5700;50.996;7.044;2023-08-01T01:34:57;3.40;;;0.85;;
11287;SDS011;5700;50.996;7.044;2023-08-01T01:38:00;0.60;;;0.52;;
11287;SDS011;5700;50.996;7.044;2023-08-01T01:41:03;1.02;;;0.65;;
11287;SDS011;5700;50.996;7.044;2023-08-01T01:44:05;1.48;;;0.60;;
11287;SDS011;5700;50.996;7.044;2023-08-01T01:47:06;0.73;;;0.47;;
11287;SDS011;5700;50.996;7.044;2023-08-01T01:50:08;0.40;;;0.40;;
11287;SDS011;5700;50.996;7.044;2023-08-01T01:53:12;2.10;;;0.50;;
11287;SDS011;5700;50.996;7.044;2023-08-01T01:56:14;0.50;;;0.40;;
11287;SDS011;5700;50.996;7.044;2023-08-01T01:59:16;1.50;;;0.60;;
11287;SDS011;5700;50.996;7.044;2023-08-01T02:02:18;0.65;;;0.50;;
11287;SDS011;5700;50.996;7.044;2023-08-01T02:05:20;1.25;;;0.70;;
11287;SDS011;5700;50.996;7.044;2023-08-01T02:08:23;0.47;;;0.40;;
11287;SDS011;5700;50.996;7.044;2023-08-01T02:11:24;1.60;;;0.50;;
11287;SDS011;5700;50.996;7.044;2023-08-01T02:14:26;0.77;;;0.60;;
11287;SDS011;5700;50.996;7.044;2023-08-01T02:17:27;2.03;;;0.65;;
11287;SDS011;5700;50.996;7.044;2023-08-01T02:20:29;1.05;;;0.55;;
11287;SDS011;5700;50.996;7.044;2023-08-01T02:23:32;0.88;;;0.70;;
11287;SDS011;5700;50.996;7.044;2023-08-01T02:26:36;0.65;;;0.65;;
11287;SDS011;5700;50.996;7.044;2023-08-01T02:29:38;1.35;;;0.60;;
11287;SDS011;5700;50.996;7.044;2023-08-01T02:32:39;0.73;;;0.55;;
11287;SDS011;5700;50.996;7.044;2023-08-01T02:35:42;0.65;;;0.60;;
11287;SDS011;5700;50.996;7.044;2023-08-01T02:38:46;1.85;;;0.70;;
11287;SDS011;5700;50.996;7.044;2023-08-01T02:41:48;3.22;;;0.90;;
11287;SDS011;5700;50.996;7.044;2023-08-01T02:44:50;1.05;;;0.70;;
11287;SDS011;5700;50.996;7.044;2023-08-01T02:47:51;1.83;;;0.77;;
11287;SDS011;5700;50.996;7.044;2023-08-01T02:50:53;3.47;;;1.10;;
11287;SDS011;5700;50.996;7.044;2023-08-01T02:53:55;2.80;;;1.08;;
11287;SDS011;5700;50.996;7.044;2023-08-01T02:56:57;1.33;;;0.80;;
11287;SDS011;5700;50.996;7.044;2023-08-01T02:59:58;1.35;;;0.80;;
11287;SDS011;5700;50.996;7.044;2023-08-01T03:03:00;1.52;;;0.90;;
11287;SDS011;5700;50.996;7.044;2023-08-01T03:06:03;1.05;;;0.80;;
11287;SDS011;5700;50.996;7.044;2023-08-01T03:09:06;1.40;;;0.70;;
11287;SDS011;5700;50.996;7.044;2023-08-01T03:12:08;1.10;;;0.80;;
11287;SDS011;5700;50.996;7.044;2023-08-01T03:15:09;0.70;;;0.70;;
11287;SDS011;5700;50.996;7.044;2023-08-01T03:18:11;1.10;;;0.73;;
11287;SDS011;5700;50.996;7.044;2023-08-01T03:21:13;3.70;;;0.85;;
11287;SDS011;5700;50.996;7.044;2023-08-01T03:24:16;1.77;;;0.80;;
11287;SDS011;5700;50.996;7.044;2023-08-01T03:27:18;1.10;;;0.90;;
11287;SDS011;5700;50.996;7.044;2023-08-01T03:30:19;4.78;;;1.73;;
11287;SDS011;5700;50.996;7.044;2023-08-01T03:33:21;3.22;;;1.90;;
11287;SDS011;5700;50.996;7.044;2023-08-01T03:36:23;3.88;;;2.05;;
11287;SDS011;5700;50.996;7.044;2023-08-01T03:39:26;5.90;;;2.88;;
11287;SDS011;5700;50.996;7.044;2023-08-01T03:42:28;5.38;;;3.08;;
11287;SDS011;5700;50.996;7.044;2023-08-01T03:45:30;5.20;;;3.10;;
11287;SDS011;5700;50.996;7.044;2023-08-01T03:48:31;5.60;;;2.88;;
11287;SDS011;5700;50.996;7.044;2023-08-01T03:51:33;6.13;;;3.60;;
11287;SDS011;5700;50.996;7.044;2023-08-01T03:54:36;10.98;;;3.70;;
11287;SDS011;5700;50.996;7.044;2023-08-01T03:57:38;7.13;;;4.00;;
11287;SDS011;5700;50.996;7.044;2023-08-01T04:00:39;8.68;;;4.63;;
11287;SDS011;5700;50.996;7.044;2023-08-01T04:03:41;9.27;;;4.50;;
11287;SDS011;5700;50.996;7.044;2023-08-01T04:06:43;7.18;;;4.50;;
11287;SDS011;5700;50.996;7.044;2023-08-01T04:09:46;8.82;;;5.03;;
11287;SDS011;5700;50.996;7.044;2023-08-01T04:12:48;8.82;;;4.63;;
11287;SDS011;5700;50.996;7.044;2023-08-01T04:15:49;9.63;;;5.47;;
11287;SDS011;5700;50.996;7.044;2023-08-01T04:18:51;10.88;;;5.43;;
11287;SDS011;5700;50.996;7.044;2023-08-01T04:21:53;8.45;;;5.15;;
11287;SDS011;5700;50.996;7.044;2023-08-01T04:24:56;9.85;;;5.70;;
11287;SDS011;5700;50.996;7.044;2023-08-01T04:27:58;9.80;;;5.85;;
11287;SDS011;5700;50.996;7.044;2023-08-01T04:30:59;11.90;;;6.40;;
11287;SDS011;5700;50.996;7.044;2023-08-01T04:34:01;11.57;;;6.93;;
11287;SDS011;5700;50.996;7.044;2023-08-01T04:37:03;13.65;;;7.05;;
11287;SDS011;5700;50.996;7.044;2023-08-01T04:40:07;14.18;;;6.20;;
11287;SDS011;5700;50.996;7.044;2023-08-01T04:43:09;11.15;;;6.70;;
11287;SDS011;5700;50.996;7.044;2023-08-01T04:46:11;12.13;;;7.15;;
11287;SDS011;5700;50.996;7.044;2023-08-01T04:49:13;11.90;;;6.20;;
11287;SDS011;5700;50.996;7.044;2023-08-01T04:52:15;12.98;;;6.35;;
11287;SDS011;5700;50.996;7.044;2023-08-01T04:55:18;13.23;;;6.18;;
11287;SDS011;5700;50.996;7.044;2023-08-01T04:58:19;11.18;;;5.85;;
11287;SDS011;5700;50.996;7.044;2023-08-01T05:01:21;13.27;;;6.50;;
11287;SDS011;5700;50.996;7.044;2023-08-01T05:04:23;15.30;;;5.95;;
11287;SDS011;5700;50.996;7.044;2023-08-01T05:07:25;10.23;;;5.63;;
11287;SDS011;5700;50.996;7.044;2023-08-01T05:10:29;14.20;;;5.97;;
11287;SDS011;5700;50.996;7.044;2023-08-01T05:13:30;13.50;;;5.88;;
11287;SDS011;5700;50.996;7.044;2023-08-01T05:16:32;13.13;;;6.22;;
11287;SDS011;5700;50.996;7.044;2023-08-01T05:19:34;12.45;;;6.45;;
11287;SDS011;5700;50.996;7.044;2023-08-01T05:22:35;14.75;;;5.75;;
11287;SDS011;5700;50.996;7.044;2023-08-01T05:25:38;10.15;;;5.60;;
11287;SDS011;5700;50.996;7.044;2023-08-01T05:28:40;10.40;;;5.65;;
11287;SDS011;5700;50.996;7.044;2023-08-01T05:31:41;13.82;;;5.28;;
11287;SDS011;5700;50.996;7.044;2023-08-01T05:34:43;10.77;;;5.40;;
11287;SDS011;5700;50.996;7.044;2023-08-01T05:37:45;9.93;;;4.88;;
11287;SDS011;5700;50.996;7.044;2023-08-01T05:40:48;13.60;;;5.55;;
11287;SDS011;5700;50.996;7.044;2023-08-01T05:43:50;8.73;;;5.22;;
11287;SDS011;5700;50.996;7.044;2023-08-01T05:46:51;13.35;;;4.95;;
11287;SDS011;5700;50.996;7.044;2023-08-01T05:49:53;12.23;;;5.90;;
11287;SDS011;5700;50.996;7.044;2023-08-01T05:52:54;12.23;;;5.28;;
11287;SDS011;5700;50.996;7.044;2023-08-01T05:55:58;8.07;;;4.90;;
11287;SDS011;5700;50.996;7.044;2023-08-01T05:59:00;10.40;;;5.32;;
11287;SDS011;5700;50.996;7.044;2023-08-01T06:02:02;7.47;;;4.03;;
11287;SDS011;5700;50.996;7.044;2023-08-01T06:05:04;9.00;;;4.38;;
11287;SDS011;5700;50.996;7.044;2023-08-01T06:08:06;9.45;;;4.45;;
11287;SDS011;5700;50.996;7.044;2023-08-01T06:11:10;11.68;;;4.35;;
11287;SDS011;5700;50.996;7.044;2023-08-01T06:14:11;8.80;;;3.92;;
11287;SDS011;5700;50.996;7.044;2023-08-01T06:17:13;9.68;;;3.97;;
11287;SDS011;5700;50.996;7.044;2023-08-01T06:20:15;6.82;;;3.70;;
11287;SDS011;5700;50.996;7.044;2023-08-01T06:23:16;7.30;;;3.35;;
11287;SDS011;5700;50.996;7.044;2023-08-01T06:26:20;10.07;;;4.13;;
11287;SDS011;5700;50.996;7.044;2023-08-01T06:29:22;7.78;;;4.70;;
11287;SDS011;5700;50.996;7.044;2023-08-01T06:32:25;11.60;;;4.28;;
11287;SDS011;5700;50.996;7.044;2023-08-01T06:35:26;10.05;;;3.95;;
11287;SDS011;5700;50.996;7.044;2023-08-01T06:38:28;7.30;;;3.90;;
11287;SDS011;5700;50.996;7.044;2023-08-01T06:41:30;8.40;;;4.00;;
11287;SDS011;5700;50.996;7.044;2023-08-01T06:44:32;8.43;;;4.13;;
11287;SDS011;5700;50.996;7.044;2023-08-01T06:47:34;8.25;;;3.88;;
11287;SDS011;5700;50.996;7.044;2023-08-01T06:50:36;7.00;;;3.95;;
11287;SDS011;5700;50.996;7.044;2023-08-01T06:53:38;5.60;;;3.70;;
11287;SDS011;5700;50.996;7.044;2023-08-01T06:56:41;9.35;;;3.92;;
11287;SDS011;5700;50.996;7.044;2023-08-01T06:59:47;8.68;;;3.75;;
11287;SDS011;5700;50.996;7.044;2023-08-01T07:02:49;8.63;;;4.25;;
11287;SDS011;5700;50.996;7.044;2023-08-01T07:05:50;6.85;;;3.55;;
11287;SDS011;5700;50.996;7.044;2023-08-01T07:08:52;7.15;;;4.00;;
11287;SDS011;5700;50.996;7.044;2023-08-01T07:11:55;10.02;;;4.20;;
11287;SDS011;5700;50.996;7.044;2023-08-01T07:14:56;7.38;;;4.10;;
11287;SDS011;5700;50.996;7.044;2023-08-01T07:17:58;7.57;;;3.85;;
11287;SDS011;5700;50.996;7.044;2023-08-01T07:21:00;10.93;;;4.30;;
11287;SDS011;5700;50.996;7.044;2023-08-01T07:24:02;7.53;;;3.63;;
11287;SDS011;5700;50.996;7.044;2023-08-01T07:27:06;8.02;;;3.70;;
11287;SDS011;5700;50.996;7.044;2023-08-01T07:30:07;7.18;;;3.65;;
11287;SDS011;5700;50.996;7.044;2023-08-01T07:33:10;8.68;;;3.30;;
11287;SDS011;5700;50.996;7.044;2023-08-01T07:36:11;8.65;;;3.63;;
11287;SDS011;5700;50.996;7.044;2023-08-01T07:39:13;7.22;;;3.28;;
11287;SDS011;5700;50.996;7.044;2023-08-01T07:42:17;5.80;;;3.63;;
11287;SDS011;5700;50.996;7.044;2023-08-01T07:45:19;8.30;;;3.45;;
11287;SDS011;5700;50.996;7.044;2023-08-01T07:48:22;8.70;;;3.75;;
11287;SDS011;5700;50.996;7.044;2023-08-01T07:51:23;10.23;;;3.30;;
11287;SDS011;5700;50.996;7.044;2023-08-01T07:54:25;8.38;;;3.78;;
11287;SDS011;5700;50.996;7.044;2023-08-01T07:57:28;5.75;;;3.45;;
11287;SDS011;5700;50.996;7.044;2023-08-01T08:00:30;8.27;;;3.50;;
11287;SDS011;5700;50.996;7.044;2023-08-01T08:03:32;8.23;;;3.63;;
11287;SDS011;5700;50.996;7.044;2023-08-01T08:06:33;9.88;;;3.53;;
11287;SDS011;5700;50.996;7.044;2023-08-01T08:09:35;8.70;;;3.03;;
11287;SDS011;5700;50.996;7.044;2023-08-01T08:12:38;12.52;;;3.30;;
11287;SDS011;5700;50.996;7.044;2023-08-01T08:15:40;6.90;;;2.75;;
11287;SDS011;5700;50.996;7.044;2023-08-01T08:18:42;8.20;;;3.05;;
11287;SDS011;5700;50.996;7.044;2023-08-01T08:21:43;9.00;;;3.35;;
11287;SDS011;5700;50.996;7.044;2023-08-01T08:24:44;7.05;;;2.88;;
11287;SDS011;5700;50.996;7.044;2023-08-01T08:27:47;8.20;;;2.90;;
11287;SDS011;5700;50.996;7.044;2023-08-01T08:30:50;7.68;;;2.88;;
11287;SDS011;5700;50.996;7.044;2023-08-01T08:33:51;8.50;;;2.83;;
11287;SDS011;5700;50.996;7.044;2023-08-01T08:36:53;6.57;;;2.45;;
11287;SDS011;5700;50.996;7.044;2023-08-01T08:39:55;5.95;;;2.85;;
11287;SDS011;5700;50.996;7.044;2023-08-01T08:42:58;8.23;;;2.63;;
11287;SDS011;5700;50.996;7.044;2023-08-01T08:46:03;7.22;;;2.95;;
11287;SDS011;5700;50.996;7.044;2023-08-01T08:49:05;5.35;;;2.55;;
11287;SDS011;5700;50.996;7.044;2023-08-01T08:52:07;7.65;;;2.70;;
11287;SDS011;5700;50.996;7.044;2023-08-01T08:55:09;6.13;;;2.75;;
11287;SDS011;5700;50.996;7.044;2023-08-01T08:58:12;8.18;;;3.10;;
11287;SDS011;5700;50.996;7.044;2023-08-01T09:01:14;7.07;;;3.05;;
11287;SDS011;5700;50.996;7.044;2023-08-01T09:04:15;5.85;;;2.70;;
11287;SDS011;5700;50.996;7.044;2023-08-01T09:07:17;4.85;;;2.33;;
11287;SDS011;5700;50.996;7.044;2023-08-01T09:10:21;9.13;;;2.90;;
11287;SDS011;5700;50.996;7.044;2023-08-01T09:13:24;6.75;;;2.50;;
11287;SDS011;5700;50.996;7.044;2023-08-01T09:16:26;6.20;;;3.15;;
11287;SDS011;5700;50.996;7.044;2023-08-01T09:19:28;6.07;;;2.75;;
11287;SDS011;5700;50.996;7.044;2023-08-01T09:22:29;6.45;;;2.40;;
11287;SDS011;5700;50.996;7.044;2023-08-01T09:25:31;6.72;;;2.22;;
11287;SDS011;5700;50.996;7.044;2023-08-01T09:28:35;3.80;;;1.83;;
11287;SDS011;5700;50.996;7.044;2023-08-01T09:31:37;4.25;;;2.33;;
11287;SDS011;5700;50.996;7.044;2023-08-01T09:34:40;3.83;;;2.08;;
11287;SDS011;5700;50.996;7.044;2023-08-01T09:37:43;8.40;;;2.45;;
11287;SDS011;5700;50.996;7.044;2023-08-01T09:40:45;6.75;;;2.47;;
11287;SDS011;5700;50.996;7.044;2023-08-01T09:43:49;12.07;;;2.38;;
11287;SDS011;5700;50.996;7.044;2023-08-01T09:46:58;5.53;;;2.35;;
11287;SDS011;5700;50.996;7.044;2023-08-01T09:50:00;7.00;;;2.55;;
11287;SDS011;5700;50.996;7.044;2023-08-01T09:53:09;4.85;;;2.20;;
11287;SDS011;5700;50.996;7.044;2023-08-01T09:56:10;5.45;;;2.05;;
11287;SDS011;5700;50.996;7.044;2023-08-01T09:59:18;4.95;;;2.50;;
11287;SDS011;5700;50.996;7.044;2023-08-01T10:02:20;5.22;;;2.25;;
11287;SDS011;5700;50.996;7.044;2023-08-01T10:05:25;5.72;;;2.50;;
11287;SDS011;5700;50.996;7.044;2023-08-01T10:08:28;5.78;;;2.38;;
11287;SDS011;5700;50.996;7.044;2023-08-01T10:11:33;5.97;;;2.65;;
11287;SDS011;5700;50.996;7.044;2023-08-01T10:14:37;4.03;;;1.75;;
11287;SDS011;5700;50.996;7.044;2023-08-01T10:17:40;3.60;;;2.05;;
11287;SDS011;5700;50.996;7.044;2023-08-01T10:20:42;6.00;;;1.83;;
11287;SDS011;5700;50.996;7.044;2023-08-01T10:23:45;5.53;;;1.70;;
11287;SDS011;5700;50.996;7.044;2023-08-01T10:26:47;4.90;;;1.88;;
11287;SDS011;5700;50.996;7.044;2023-08-01T10:29:57;4.05;;;1.85;;
11287;SDS011;5700;50.996;7.044;2023-08-01T10:32:59;6.65;;;2.58;;
11287;SDS011;5700;50.996;7.044;2023-08-01T10:36:05;3.78;;;1.90;;
11287;SDS011;5700;50.996;7.044;2023-08-01T10:39:20;4.57;;;1.80;;
11287;SDS011;5700;50.996;7.044;2023-08-01T10:42:22;5.25;;;2.08;;
11287;SDS011;5700;50.996;7.044;2023-08-01T10:45:26;4.20;;;2.03;;
11287;SDS011;5700;50.996;7.044;2023-08-01T10:48:29;4.28;;;1.63;;
11287;SDS011;5700;50.996;7.044;2023-08-01T10:51:34;4.25;;;1.83;;
11287;SDS011;5700;50.996;7.044;2023-08-01T10:54:35;5.75;;;2.03;;
11287;SDS011;5700;50.996;7.044;2023-08-01T10:57:39;4.30;;;2.10;;
11287;SDS011;5700;50.996;7.044;2023-08-01T11:00:42;5.15;;;2.10;;
11287;SDS011;5700;50.996;7.044;2023-08-01T11:03:45;3.58;;;2.20;;
11287;SDS011;5700;50.996;7.044;2023-08-01T11:06:48;5.10;;;1.88;;
11287;SDS011;5700;50.996;7.044;2023-08-01T11:10:02;5.80;;;2.08;;
11287;SDS011;5700;50.996;7.044;2023-08-01T11:13:04;5.40;;;1.88;;
11287;SDS011;5700;50.996;7.044;2023-08-01T11:16:08;4.15;;;1.70;;
11287;SDS011;5700;50.996;7.044;2023-08-01T11:19:20;4.32;;;1.70;;
11287;SDS011;5700;50.996;7.044;2023-08-01T11:22:22;6.40;;;2.22;;
11287;SDS011;5700;50.996;7.044;2023-08-01T11:25:32;4.43;;;1.77;;
11287;SDS011;5700;50.996;7.044;2023-08-01T11:28:34;4.88;;;2.05;;
11287;SDS011;5700;50.996;7.044;2023-08-01T11:31:37;4.85;;;1.95;;
11287;SDS011;5700;50.996;7.044;2023-08-01T11:34:41;4.80;;;1.67;;
11287;SDS011;5700;50.996;7.044;2023-08-01T11:37:44;4.35;;;1.40;;
11287;SDS011;5700;50.996;7.044;2023-08-01T11:40:46;2.83;;;1.15;;
11287;SDS011;5700;50.996;7.044;2023-08-01T11:43:49;2.72;;;1.17;;
11287;SDS011;5700;50.996;7.044;2023-08-01T11:46:53;3.17;;;1.27;;
11287;SDS011;5700;50.996;7.044;2023-08-01T11:49:54;4.55;;;1.58;;
11287;SDS011;5700;50.996;7.044;2023-08-01T11:52:56;3.28;;;1.38;;
11287;SDS011;5700;50.996;7.044;2023-08-01T11:55:58;6.22;;;1.70;;
11287;SDS011;5700;50.996;7.044;2023-08-01T11:59:00;3.97;;;1.50;;
11287;SDS011;5700;50.996;7.044;2023-08-01T12:02:11;5.03;;;1.80;;
11287;SDS011;5700;50.996;7.044;2023-08-01T12:05:20;3.92;;;1.50;;
11287;SDS011;5700;50.996;7.044;2023-08-01T12:08:22;4.28;;;1.42;;
11287;SDS011;5700;50.996;7.044;2023-08-01T12:11:25;4.07;;;1.30;;
11287;SDS011;5700;50.996;7.044;2023-08-01T12:14:29;4.30;;;1.80;;
11287;SDS011;5700;50.996;7.044;2023-08-01T12:17:32;7.35;;;1.55;;
11287;SDS011;5700;50.996;7.044;2023-08-01T12:20:34;4.20;;;1.60;;
11287;SDS011;5700;50.996;7.044;2023-08-01T12:23:36;3.63;;;1.33;;
11287;SDS011;5700;50.996;7.044;2023-08-01T12:26:37;3.83;;;1.38;;
11287;SDS011;5700;50.996;7.044;2023-08-01T12:29:39;2.58;;;0.98;;
11287;SDS011;5700;50.996;7.044;2023-08-01T12:32:42;2.97;;;1.05;;
11287;SDS011;5700;50.996;7.044;2023-08-01T12:35:44;2.05;;;1.30;;
11287;SDS011;5700;50.996;7.044;2023-08-01T12:38:45;2.13;;;1.13;;
11287;SDS011;5700;50.996;7.044;2023-08-01T12:41:47;4.47;;;1.40;;
11287;SDS011;5700;50.996;7.044;2023-08-01T12:44:48;3.00;;;1.50;;
11287;SDS011;5700;50.996;7.044;2023-08-01T12:47:52;4.30;;;1.90;;
11287;SDS011;5700;50.996;7.044;2023-08-01T12:50:53;6.05;;;2.10;;
11287;SDS011;5700;50.996;7.044;2023-08-01T12:53:55;7.57;;;2.72;;
11287;SDS011;5700;50.996;7.044;2023-08-01T12:56:57;5.35;;;2.40;;
11287;SDS011;5700;50.996;7.044;2023-08-01T12:59:59;5.57;;;2.70;;
11287;SDS011;5700;50.996;7.044;2023-08-01T13:03:02;8.15;;;2.78;;
11287;SDS011;5700;50.996;7.044;2023-08-01T13:06:04;4.07;;;2.55;;
11287;SDS011;5700;50.996;7.044;2023-08-01T13:09:05;5.38;;;2.58;;
11287;SDS011;5700;50.996;7.044;2023-08-01T13:12:07;5.32;;;2.83;;
11287;SDS011;5700;50.996;7.044;2023-08-01T13:15:09;8.30;;;2.90;;
11287;SDS011;5700;50.996;7.044;2023-08-01T13:18:13;7.07;;;2.80;;
11287;SDS011;5700;50.996;7.044;2023-08-01T13:21:15;6.72;;;2.97;;
11287;SDS011;5700;50.996;7.044;2023-08-01T13:24:16;4.72;;;2.50;;
11287;SDS011;5700;50.996;7.044;2023-08-01T13:27:18;4.68;;;2.38;;
11287;SDS011;5700;50.996;7.044;2023-08-01T13:30:20;3.72;;;2.30;;
11287;SDS011;5700;50.996;7.044;2023-08-01T13:33:23;7.07;;;2.85;;
11287;SDS011;5700;50.996;7.044;2023-08-01T13:36:25;5.13;;;2.88;;
11287;SDS011;5700;50.996;7.044;2023-08-01T13:39:26;7.20;;;3.63;;
11287;SDS011;5700;50.996;7.044;2023-08-01T13:42:28;5.03;;;2.95;;
11287;SDS011;5700;50.996;7.044;2023-08-01T13:45:30;5.43;;;2.83;;
11287;SDS011;5700;50.996;7.044;2023-08-01T13:48:34;5.47;;;2.70;;
11287;SDS011;5700;50.996;7.044;2023-08-01T13:51:35;4.72;;;2.47;;
11287;SDS011;5700;50.996;7.044;2023-08-01T13:54:37;5.68;;;2.55;;
11287;SDS011;5700;50.996;7.044;2023-08-01T13:57:39;7.55;;;2.70;;
11287;SDS011;5700;50.996;7.044;2023-08-01T14:00:41;6.88;;;2.72;;
11287;SDS011;5700;50.996;7.044;2023-08-01T14:03:45;7.05;;;2.53;;
11287;SDS011;5700;50.996;7.044;2023-08-01T14:06:46;5.07;;;2.60;;
11287;SDS011;5700;50.996;7.044;2023-08-01T14:09:48;8.73;;;2.95;;
11287;SDS011;5700;50.996;7.044;2023-08-01T14:12:50;6.18;;;3.03;;
11287;SDS011;5700;50.996;7.044;2023-08-01T14:15:51;5.75;;;3.05;;
11287;SDS011;5700;50.996;7.044;2023-08-01T14:18:54;8.48;;;2.53;;
11287;SDS011;5700;50.996;7.044;2023-08-01T14:21:56;8.77;;;3.40;;
11287;SDS011;5700;50.996;7.044;2023-08-01T14:24:58;7.88;;;2.80;;
11287;SDS011;5700;50.996;7.044;2023-08-01T14:28:00;7.25;;;3.33;;
11287;SDS011;5700;50.996;7.044;2023-08-01T14:31:02;6.20;;;3.42;;
11287;SDS011;5700;50.996;7.044;2023-08-01T14:34:06;19.23;;;3.95;;
11287;SDS011;5700;50.996;7.044;2023-08-01T14:37:07;8.00;;;4.47;;
11287;SDS011;5700;50.996;7.044;2023-08-01T14:40:09;7.05;;;3.90;;
11287;SDS011;5700;50.996;7.044;2023-08-01T14:43:11;11.23;;;4.78;;
11287;SDS011;5700;50.996;7.044;2023-08-01T14:46:13;7.20;;;3.53;;
11287;SDS011;5700;50.996;7.044;2023-08-01T14:49:15;7.45;;;2.97;;
11287;SDS011;5700;50.996;7.044;2023-08-01T14:52:17;6.35;;;2.80;;
11287;SDS011;5700;50.996;7.044;2023-08-01T14:55:19;5.65;;;2.55;;
11287;SDS011;5700;50.996;7.044;2023-08-01T14:58:20;9.65;;;2.75;;
11287;SDS011;5700;50.996;7.044;2023-08-01T15:01:22;8.95;;;3.15;;
11287;SDS011;5700;50.996;7.044;2023-08-01T15:04:25;6.05;;;2.47;;
11287;SDS011;5700;50.996;7.044;2023-08-01T15:07:27;7.25;;;3.45;;
11287;SDS011;5700;50.996;7.044;2023-08-01T15:10:29;6.35;;;2.85;;
11287;SDS011;5700;50.996;7.044;2023-08-01T15:13:31;5.63;;;2.88;;
11287;SDS011;5700;50.996;7.044;2023-08-01T15:16:32;5.50;;;2.83;;
11287;SDS011;5700;50.996;7.044;2023-08-01T15:19:35;8.07;;;2.63;;
11287;SDS011;5700;50.996;7.044;2023-08-01T15:22:38;4.32;;;1.88;;
11287;SDS011;5700;50.996;7.044;2023-08-01T15:25:39;6.05;;;1.88;;
11287;SDS011;5700;50.996;7.044;2023-08-01T15:28:41;5.30;;;1.73;;
11287;SDS011;5700;50.996;7.044;2023-08-01T15:31:42;4.05;;;1.67;;
11287;SDS011;5700;50.996;7.044;2023-08-01T15:34:45;4.30;;;2.08;;
11287;SDS011;5700;50.996;7.044;2023-08-01T15:37:47;5.03;;;1.85;;
11287;SDS011;5700;50.996;7.044;2023-08-01T15:40:49;6.13;;;1.55;;
11287;SDS011;5700;50.996;7.044;2023-08-01T15:43:53;4.68;;;1.50;;
11287;SDS011;5700;50.996;7.044;2023-08-01T15:46:55;3.67;;;1.40;;
11287;SDS011;5700;50.996;7.044;2023-08-01T15:49:58;3.33;;;1.63;;
11287;SDS011;5700;50.996;7.044;2023-08-01T15:53:00;4.53;;;1.73;;
11287;SDS011;5700;50.996;7.044;2023-08-01T15:56:03;4.60;;;1.30;;
11287;SDS011;5700;50.996;7.044;2023-08-01T15:59:05;4.10;;;1.45;;
11287;SDS011;5700;50.996;7.044;2023-08-01T16:02:07;4.35;;;1.67;;
11287;SDS011;5700;50.996;7.044;2023-08-01T16:05:10;5.38;;;1.48;;
11287;SDS011;5700;50.996;7.044;2023-08-01T16:08:12;4.72;;;1.40;;
11287;SDS011;5700;50.996;7.044;2023-08-01T16:11:14;2.95;;;1.40;;
11287;SDS011;5700;50.996;7.044;2023-08-01T16:14:15;4.25;;;1.50;;
11287;SDS011;5700;50.996;7.044;2023-08-01T16:17:17;3.38;;;1.50;;
11287;SDS011;5700;50.996;7.044;2023-08-01T16:20:20;2.78;;;1.27;;
11287;SDS011;5700;50.996;7.044;2023-08-01T16:23:22;2.38;;;1.23;;
11287;SDS011;5700;50.996;7.044;2023-08-01T16:26:23;1.92;;;1.00;;
11287;SDS011;5700;50.996;7.044;2023-08-01T16:29:25;3.55;;;1.00;;
11287;SDS011;5700;50.996;7.044;2023-08-01T16:32:26;5.93;;;1.30;;
11287;SDS011;5700;50.996;7.044;2023-08-01T16:35:29;5.40;;;1.38;;
11287;SDS011;5700;50.996;7.044;2023-08-01T16:38:33;4.10;;;1.45;;
11287;SDS011;5700;50.996;7.044;2023-08-01T16:41:34;4.93;;;1.33;;
11287;SDS011;5700;50.996;7.044;2023-08-01T16:44:36;6.43;;;1.38;;
11287;SDS011;5700;50.996;7.044;2023-08-01T16:47:38;2.90;;;1.20;;
11287;SDS011;5700;50.996;7.044;2023-08-01T16:50:41;3.75;;;1.30;;
11287;SDS011;5700;50.996;7.044;2023-08-01T16:53:43;6.25;;;1.65;;
11287;SDS011;5700;50.996;7.044;2023-08-01T16:56:45;3.58;;;1.20;;
11287;SDS011;5700;50.996;7.044;2023-08-01T16:59:46;3.25;;;1.10;;
11287;SDS011;5700;50.996;7.044;2023-08-01T17:02:48;4.47;;;1.35;;
11287;SDS011;5700;50.996;7.044;2023-08-01T17:05:51;2.95;;;1.30;;
11287;SDS011;5700;50.996;7.044;2023-08-01T17:08:53;4.93;;;1.23;;
11287;SDS011;5700;50.996;7.044;2023-08-01T17:11:54;1.90;;;0.90;;
11287;SDS011;5700;50.996;7.044;2023-08-01T17:14:57;2.97;;;1.05;;
11287;SDS011;5700;50.996;7.044;2023-08-01T17:18:00;2.03;;;1.02;;
11287;SDS011;5700;50.996;7.044;2023-08-01T17:21:03;5.50;;;1.40;;
11287;SDS011;5700;50.996;7.044;2023-08-01T17:24:05;3.55;;;1.15;;
11287;SDS011;5700;50.996;7.044;2023-08-01T17:27:07;6.57;;;1.63;;
11287;SDS011;5700;50.996;7.044;2023-08-01T17:30:09;4.00;;;1.23;;
11287;SDS011;5700;50.996;7.044;2023-08-01T17:33:11;2.05;;;1.23;;
11287;SDS011;5700;50.996;7.044;2023-08-01T17:36:15;4.38;;;1.33;;
11287;SDS011;5700;50.996;7.044;2023-08-01T17:39:17;3.10;;;1.15;;
11287;SDS011;5700;50.996;7.044;2023-08-01T17:42:19;4.97;;;1.25;;
11287;SDS011;5700;50.996;7.044;2023-08-01T17:45:21;3.55;;;0.93;;
11287;SDS011;5700;50.996;7.044;2023-08-01T17:48:22;4.22;;;1.13;;
11287;SDS011;5700;50.996;7.044;2023-08-01T17:51:25;2.72;;;1.00;;
11287;SDS011;5700;50.996;7.044;2023-08-01T17:54:27;2.60;;;0.90;;
11287;SDS011;5700;50.996;7.044;2023-08-01T17:57:29;3.72;;;1.08;;
11287;SDS011;5700;50.996;7.044;2023-08-01T18:00:30;6.10;;;1.35;;
11287;SDS011;5700;50.996;7.044;2023-08-01T18:03:32;3.38;;;1.10;;
11287;SDS011;5700;50.996;7.044;2023-08-01T18:06:35;2.50;;;0.90;;
11287;SDS011;5700;50.996;7.044;2023-08-01T18:09:37;3.42;;;0.82;;
11287;SDS011;5700;50.996;7.044;2023-08-01T18:12:38;8.73;;;1.40;;
11287;SDS011;5700;50.996;7.044;2023-08-01T18:15:40;3.05;;;1.83;;
11287;SDS011;5700;50.996;7.044;2023-08-01T18:18:42;4.35;;;1.17;;
11287;SDS011;5700;50.996;7.044;2023-08-01T18:21:45;3.72;;;1.10;;
11287;SDS011;5700;50.996;7.044;2023-08-01T18:24:47;4.13;;;1.23;;
11287;SDS011;5700;50.996;7.044;2023-08-01T18:27:49;2.60;;;0.82;;
11287;SDS011;5700;50.996;7.044;2023-08-01T18:30:50;4.75;;;1.25;;